Time;durP1;ratioP1;P1;durP2;ratioP2;P2;SDS_P1;SDS_P2;PMS_P1;PMS_P2;Temp;Humidity;BMP_temperature;BMP_pressure;BME280_temperature;BME280_humidity;BME280_pressure;Samples;Min_cycle;Max_cycle;Signal;HPM_P1;HPM_P2
2023/01/03 00:00:17;;;;;;;10.47;5.00;;;;;;;;;;5030111;28;20029;-76
2023/01/03 00:02:43;;;;;;;12.57;4.47;;;;;;;;;;5025649;28;20029;-76
2023/01/03 00:05:11;;;;;;;12.77;4.33;;;;;;;;;;5031818;28;20456;-75
2023/01/03 00:07:40;;;;;;;9.03;3.60;;;;;;;;;;5029347;28;20373;-76
2023/01/03 00:10:07;;;;;;;10.37;3.90;;;;;;;;;;5027316;28;20033;-75
2023/01/03 00:12:34;;;;;;;7.97;3.00;;;;;;;;;;5046403;28;20030;-76
2023/01/03 00:15:00;;;;;;;13.70;3.90;;;;;;;;;;5047069;28;20053;-75
2023/01/03 00:17:26;;;;;;;8.83;3.23;;;;;;;;;;5024117;28;20067;-76
2023/01/03 00:19:52;;;;;;;9.20;3.90;;;;;;;;;;5029699;28;20037;-76
2023/01/03 00:22:19;;;;;;;8.13;3.70;;;;;;;;;;5023619;28;20108;-76
2023/01/03 00:24:45;;;;;;;10.87;3.93;;;;;;;;;;5024096;28;20522;-75
2023/01/03 00:27:12;;;;;;;9.67;4.00;;;;;;;;;;5038101;28;20420;-76
2023/01/03 00:29:38;;;;;;;12.73;4.47;;;;;;;;;;5039198;28;20045;-75
2023/01/03 00:32:05;;;;;;;9.40;3.80;;;;;;;;;;5044510;28;20041;-75
2023/01/03 00:34:31;;;;;;;10.00;3.70;;;;;;;;;;5024087;28;20037;-76
2023/01/03 00:36:57;;;;;;;8.67;4.37;;;;;;;;;;5044725;28;20057;-75
2023/01/03 00:39:24;;;;;;;7.33;3.63;;;;;;;;;;5022982;28;20146;-76
2023/01/03 00:41:50;;;;;;;8.20;3.80;;;;;;;;;;5045648;28;20044;-75
2023/01/03 00:44:16;;;;;;;11.43;5.53;;;;;;;;;;5029073;28;20095;-75
2023/01/03 00:46:42;;;;;;;8.50;4.30;;;;;;;;;;5045791;28;20041;-76
2023/01/03 00:49:08;;;;;;;12.10;4.47;;;;;;;;;;5027540;28;20077;-76
2023/01/03 00:51:36;;;;;;;8.37;4.37;;;;;;;;;;5044024;28;20030;-76
2023/01/03 00:54:05;;;;;;;13.17;5.07;;;;;;;;;;5028844;28;20120;-76
2023/01/03 00:56:35;;;;;;;10.77;4.20;;;;;;;;;;5038875;28;20144;-76
2023/01/03 00:59:01;;;;;;;10.87;4.63;;;;;;;;;;5044745;28;20028;-74
2023/01/03 01:01:31;;;;;;;9.43;4.60;;;;;;;;;;5023842;28;20115;-76
2023/01/03 01:04:00;;;;;;;8.30;4.90;;;;;;;;;;5045765;28;21670;-76
2023/01/03 01:06:30;;;;;;;9.37;4.47;;;;;;;;;;5024570;28;20053;-76
2023/01/03 01:08:59;;;;;;;7.77;4.57;;;;;;;;;;5045617;28;20033;-75
2023/01/03 01:11:26;;;;;;;8.93;5.00;;;;;;;;;;5025046;28;20421;-76
2023/01/03 01:13:53;;;;;;;11.23;4.63;;;;;;;;;;5029390;28;20259;-76
2023/01/03 01:16:21;;;;;;;10.30;4.80;;;;;;;;;;5036930;28;20864;-76
2023/01/03 01:18:48;;;;;;;10.50;4.83;;;;;;;;;;5029312;28;20652;-77
2023/01/03 01:21:18;;;;;;;10.53;5.03;;;;;;;;;;5040410;28;20029;-76
2023/01/03 01:23:44;;;;;;;13.00;5.40;;;;;;;;;;5045663;28;20033;-76
2023/01/03 01:26:11;;;;;;;14.47;5.93;;;;;;;;;;5026105;28;20029;-76
2023/01/03 01:28:38;;;;;;;8.67;5.37;;;;;;;;;;5045302;28;20046;-76
2023/01/03 01:31:06;;;;;;;9.60;5.20;;;;;;;;;;5045047;28;20083;-75
2023/01/03 01:33:34;;;;;;;11.73;5.10;;;;;;;;;;5024619;28;20129;-75
2023/01/03 01:36:11;;;;;;;11.50;5.10;;;;;;;;;;5037892;28;20037;-75
2023/01/03 01:38:37;;;;;;;15.63;5.83;;;;;;;;;;5044637;28;20053;-76
2023/01/03 01:41:04;;;;;;;11.07;5.90;;;;;;;;;;5020849;28;20068;-75
2023/01/03 01:46:17;;;;;;;9.33;5.00;;;;;;;;;;5029112;28;20052;-76
2023/01/03 01:48:44;;;;;;;10.23;4.77;;;;;;;;;;5047203;28;20040;-76
2023/01/03 01:51:10;;;;;;;12.73;4.70;;;;;;;;;;5043431;28;20025;-75
2023/01/03 01:53:37;;;;;;;10.50;4.83;;;;;;;;;;5033089;28;20030;-75
2023/01/03 01:56:17;;;;;;;13.20;4.97;;;;;;;;;;5048119;28;20112;-76
2023/01/03 01:58:44;;;;;;;13.97;4.70;;;;;;;;;;5048084;28;20659;-75
2023/01/03 02:01:14;;;;;;;16.13;5.10;;;;;;;;;;5042751;28;20065;-75
2023/01/03 02:03:42;;;;;;;11.13;4.30;;;;;;;;;;5027699;28;20029;-76
2023/01/03 02:06:09;;;;;;;7.40;3.00;;;;;;;;;;5030683;28;20091;-75
2023/01/03 02:08:35;;;;;;;10.00;3.20;;;;;;;;;;5043849;28;20044;-76
2023/01/03 02:11:01;;;;;;;13.37;3.60;;;;;;;;;;5042631;28;20033;-75
2023/01/03 02:13:47;;;;;;;6.07;2.77;;;;;;;;;;5031962;28;20362;-75
2023/01/03 02:16:16;;;;;;;11.83;3.47;;;;;;;;;;5033536;28;20037;-75
2023/01/03 02:18:46;;;;;;;10.97;3.10;;;;;;;;;;5027340;28;20033;-75
2023/01/03 02:21:26;;;;;;;14.93;3.30;;;;;;;;;;5048328;28;20022;-76
2023/01/03 02:23:55;;;;;;;10.37;4.67;;;;;;;;;;5043076;28;20029;-76
2023/01/03 02:26:40;;;;;;;15.30;3.57;;;;;;;;;;5047219;28;20448;-76
2023/01/03 02:29:18;;;;;;;9.63;3.97;;;;;;;;;;5047715;28;20056;-77
2023/01/03 02:31:48;;;;;;;10.13;3.43;;;;;;;;;;5040949;28;20033;-75
2023/01/03 02:34:31;;;;;;;7.17;3.30;;;;;;;;;;5030914;28;20037;-76
2023/01/03 02:37:16;;;;;;;14.37;3.93;;;;;;;;;;5042525;28;20037;-75
2023/01/03 02:39:47;;;;;;;15.63;3.43;;;;;;;;;;5041210;28;20029;-76
2023/01/03 02:45:18;;;;;;;10.40;3.70;;;;;;;;;;5031619;28;20077;-76
2023/01/03 02:47:52;;;;;;;12.03;4.20;;;;;;;;;;5024722;28;20029;-76
2023/01/03 02:50:20;;;;;;;9.40;4.30;;;;;;;;;;5026687;28;20033;-74
2023/01/03 02:52:47;;;;;;;11.60;4.27;;;;;;;;;;5024960;28;20029;-76
2023/01/03 02:55:16;;;;;;;14.20;4.30;;;;;;;;;;5047166;28;20040;-75
2023/01/03 02:57:45;;;;;;;14.77;4.83;;;;;;;;;;5045766;28;20029;-76
2023/01/03 03:00:13;;;;;;;19.27;5.17;;;;;;;;;;5045919;28;20025;-75
2023/01/03 03:02:43;;;;;;;8.30;4.00;;;;;;;;;;5050080;28;20034;-76
2023/01/03 03:05:10;;;;;;;10.93;4.23;;;;;;;;;;5046756;28;20128;-76
2023/01/03 03:07:39;;;;;;;17.13;5.30;;;;;;;;;;5030678;28;20528;-76
2023/01/03 03:13:14;;;;;;;9.27;3.93;;;;;;;;;;5031341;28;20520;-76
2023/01/03 03:15:40;;;;;;;13.40;3.63;;;;;;;;;;5031337;28;20505;-75
2023/01/03 03:18:08;;;;;;;14.20;3.63;;;;;;;;;;5046429;28;20025;-76
2023/01/03 03:26:12;;;;;;;13.93;4.03;;;;;;;;;;5031328;28;20203;-77
2023/01/03 03:28:42;;;;;;;13.07;3.90;;;;;;;;;;5031162;28;20031;-76
2023/01/03 03:31:14;;;;;;;13.50;4.30;;;;;;;;;;5045533;28;20029;-76
2023/01/03 03:33:45;;;;;;;15.57;4.22;;;;;;;;;;5031533;28;20305;-76
2023/01/03 03:36:16;;;;;;;10.17;4.60;;;;;;;;;;5041177;28;20033;-76
2023/01/03 03:38:43;;;;;;;9.97;3.73;;;;;;;;;;5045749;28;20021;-75
2023/01/03 03:47:19;;;;;;;16.60;4.82;;;;;;;;;;5031217;28;20156;-75
2023/01/03 03:49:45;;;;;;;14.23;4.60;;;;;;;;;;5024243;28;20025;-75
2023/01/03 03:52:14;;;;;;;11.20;4.67;;;;;;;;;;5045576;28;20033;-76
2023/01/03 03:54:41;;;;;;;13.67;5.40;;;;;;;;;;5030222;28;20108;-75
2023/01/03 03:57:10;;;;;;;13.63;5.27;;;;;;;;;;5030468;28;20025;-75
2023/01/03 03:59:39;;;;;;;17.47;4.93;;;;;;;;;;5037931;28;20911;-75
2023/01/03 04:02:07;;;;;;;14.07;5.23;;;;;;;;;;5029929;28;20115;-76
2023/01/03 04:04:36;;;;;;;13.37;5.43;;;;;;;;;;5045293;28;20045;-76
2023/01/03 04:07:02;;;;;;;20.33;5.83;;;;;;;;;;5025432;28;20041;-76
2023/01/03 04:09:29;;;;;;;19.27;6.97;;;;;;;;;;5045732;28;20121;-76
2023/01/03 04:11:55;;;;;;;23.57;6.87;;;;;;;;;;5023733;28;20087;-75
2023/01/03 04:14:21;;;;;;;24.63;7.87;;;;;;;;;;5026930;28;20037;-74
2023/01/03 04:16:47;;;;;;;12.93;6.63;;;;;;;;;;5040116;28;20032;-76
2023/01/03 04:19:13;;;;;;;14.73;6.90;;;;;;;;;;5041474;28;20052;-74
2023/01/03 04:21:39;;;;;;;12.87;6.63;;;;;;;;;;5029864;28;20029;-76
2023/01/03 04:24:05;;;;;;;18.47;8.03;;;;;;;;;;5045282;28;20069;-75
2023/01/03 04:26:31;;;;;;;21.77;7.30;;;;;;;;;;5046249;28;20025;-75
2023/01/03 04:28:57;;;;;;;17.63;7.10;;;;;;;;;;5024088;28;20038;-75
2023/01/03 04:31:23;;;;;;;18.33;7.13;;;;;;;;;;5029617;28;20017;-76
2023/01/03 04:33:52;;;;;;;21.93;6.93;;;;;;;;;;5046058;28;20072;-75
2023/01/03 04:36:19;;;;;;;20.43;8.10;;;;;;;;;;5046408;28;21671;-75
2023/01/03 04:38:45;;;;;;;18.50;8.17;;;;;;;;;;5039172;28;20087;-76
2023/01/03 04:41:11;;;;;;;19.10;8.10;;;;;;;;;;5047835;28;20029;-74
2023/01/03 04:46:22;;;;;;;23.10;9.10;;;;;;;;;;5032764;28;20067;-74
2023/01/03 04:48:50;;;;;;;27.67;9.50;;;;;;;;;;5042657;28;20140;-74
2023/01/03 04:51:16;;;;;;;19.37;8.70;;;;;;;;;;5046082;28;20033;-75
2023/01/03 04:53:42;;;;;;;21.63;8.97;;;;;;;;;;5026733;28;20112;-75
2023/01/03 04:56:08;;;;;;;27.47;9.23;;;;;;;;;;5030625;28;20029;-76
2023/01/03 04:58:34;;;;;;;25.60;10.40;;;;;;;;;;5045266;28;20033;-76
2023/01/03 05:01:01;;;;;;;30.70;10.93;;;;;;;;;;5030130;28;20041;-75
2023/01/03 05:03:28;;;;;;;28.83;11.47;;;;;;;;;;5027254;28;20025;-77
2023/01/03 05:05:58;;;;;;;24.83;10.03;;;;;;;;;;5045972;28;20350;-75
2023/01/03 05:08:24;;;;;;;21.50;10.57;;;;;;;;;;5041653;28;20450;-75
2023/01/03 05:10:52;;;;;;;20.83;9.73;;;;;;;;;;5042903;28;20094;-75
2023/01/03 05:13:18;;;;;;;28.20;10.83;;;;;;;;;;5030574;28;20049;-75
2023/01/03 05:15:44;;;;;;;21.80;10.40;;;;;;;;;;5029638;28;20040;-76
2023/01/03 05:18:10;;;;;;;27.03;9.63;;;;;;;;;;5045692;28;20614;-76
2023/01/03 05:26:11;;;;;;;23.17;10.13;;;;;;;;;;5033604;28;20484;-77
2023/01/03 05:28:37;;;;;;;25.33;9.67;;;;;;;;;;5049000;28;20036;-76
2023/01/03 05:31:03;;;;;;;23.23;9.93;;;;;;;;;;5042567;28;20025;-74
2023/01/03 05:33:29;;;;;;;24.47;9.43;;;;;;;;;;5044181;28;20088;-74
2023/01/03 05:35:55;;;;;;;22.97;8.60;;;;;;;;;;5027449;28;20025;-75
2023/01/03 05:38:22;;;;;;;18.33;8.67;;;;;;;;;;5042600;28;20025;-75
2023/01/03 05:40:48;;;;;;;16.83;7.70;;;;;;;;;;5048293;28;20117;-75
2023/01/03 05:43:15;;;;;;;21.30;7.83;;;;;;;;;;5048457;28;20057;-75
2023/01/03 05:45:41;;;;;;;21.67;8.27;;;;;;;;;;5042787;28;20025;-75
2023/01/03 05:48:07;;;;;;;19.73;7.73;;;;;;;;;;5033990;28;20517;-76
2023/01/03 05:50:34;;;;;;;16.07;7.93;;;;;;;;;;5041869;28;20033;-75
2023/01/03 05:53:00;;;;;;;15.77;6.67;;;;;;;;;;5033164;28;20146;-76
2023/01/03 05:55:28;;;;;;;21.03;7.27;;;;;;;;;;5033693;28;20056;-75
2023/01/03 05:57:54;;;;;;;15.73;6.83;;;;;;;;;;5044905;28;21757;-76
2023/01/03 06:00:20;;;;;;;13.27;7.30;;;;;;;;;;5048084;28;20091;-76
2023/01/03 06:02:47;;;;;;;18.57;7.90;;;;;;;;;;5028527;28;20033;-75
2023/01/03 06:05:13;;;;;;;23.97;8.70;;;;;;;;;;5033143;28;20048;-76
2023/01/03 06:07:39;;;;;;;21.73;7.57;;;;;;;;;;5027440;28;20099;-75
2023/01/03 06:10:05;;;;;;;14.13;6.60;;;;;;;;;;5027720;28;20033;-75
2023/01/03 06:12:31;;;;;;;18.80;7.73;;;;;;;;;;5047689;28;20041;-76
2023/01/03 06:14:57;;;;;;;20.10;7.70;;;;;;;;;;5049864;28;20036;-75
2023/01/03 06:20:11;;;;;;;18.87;7.87;;;;;;;;;;5033168;28;20992;-77
2023/01/03 06:22:37;;;;;;;17.60;7.83;;;;;;;;;;5031375;28;20601;-75
2023/01/03 06:25:03;;;;;;;16.07;7.23;;;;;;;;;;5032409;28;20450;-76
2023/01/03 06:27:29;;;;;;;18.63;8.07;;;;;;;;;;5031283;28;20041;-75
2023/01/03 06:29:55;;;;;;;17.67;7.90;;;;;;;;;;5031671;28;20037;-76
2023/01/03 06:32:21;;;;;;;16.40;7.60;;;;;;;;;;5048399;28;20037;-75
2023/01/03 06:34:47;;;;;;;23.80;7.57;;;;;;;;;;5041731;28;20258;-76
2023/01/03 06:37:13;;;;;;;23.73;7.80;;;;;;;;;;5047485;28;20111;-75
2023/01/03 06:39:41;;;;;;;17.10;8.27;;;;;;;;;;5047812;28;20044;-76
2023/01/03 06:53:13;;;;;;;28.03;9.53;;;;;;;;;;5031720;28;20155;-76
2023/01/03 06:58:30;;;;;;;20.03;8.87;;;;;;;;;;5032474;28;20056;-78
2023/01/03 07:00:57;;;;;;;17.73;9.03;;;;;;;;;;5035901;28;20075;-75
2023/01/03 07:03:23;;;;;;;22.90;10.57;;;;;;;;;;5027624;28;20017;-77
2023/01/03 07:05:49;;;;;;;31.10;11.20;;;;;;;;;;5047736;28;20412;-77
2023/01/03 07:08:15;;;;;;;22.50;10.57;;;;;;;;;;5047903;28;21678;-78
2023/01/03 07:10:44;;;;;;;31.87;12.57;;;;;;;;;;5028944;28;20029;-77
2023/01/03 07:15:58;;;;;;;18.40;10.03;;;;;;;;;;5032950;28;20045;-77
2023/01/03 07:18:25;;;;;;;21.70;9.67;;;;;;;;;;5042858;28;20051;-77
2023/01/03 07:20:51;;;;;;;15.93;9.80;;;;;;;;;;5026455;28;20025;-78
2023/01/03 07:23:20;;;;;;;26.43;8.53;;;;;;;;;;5030022;28;20055;-77
2023/01/03 07:26:03;;;;;;;20.77;9.10;;;;;;;;;;5030986;28;21695;-77
2023/01/03 07:28:29;;;;;;;21.47;9.07;;;;;;;;;;5042219;28;20111;-77
2023/01/03 07:30:59;;;;;;;16.97;8.83;;;;;;;;;;5031685;28;20607;-76
2023/01/03 07:33:25;;;;;;;18.20;8.80;;;;;;;;;;5046142;28;20041;-75
2023/01/03 07:35:51;;;;;;;17.20;7.77;;;;;;;;;;5027463;28;20025;-76
2023/01/03 07:38:17;;;;;;;15.77;8.40;;;;;;;;;;5025061;28;20029;-76
2023/01/03 07:40:43;;;;;;;16.13;9.20;;;;;;;;;;5040047;28;20040;-75
2023/01/03 07:45:55;;;;;;;15.97;8.40;;;;;;;;;;5031835;28;20124;-76
2023/01/03 07:48:21;;;;;;;15.80;7.47;;;;;;;;;;5027102;28;20033;-76
2023/01/03 07:50:47;;;;;;;15.63;7.00;;;;;;;;;;5046811;28;20037;-76
2023/01/03 07:53:15;;;;;;;10.10;6.13;;;;;;;;;;5041886;28;20025;-76
2023/01/03 07:55:43;;;;;;;19.63;6.80;;;;;;;;;;5045383;28;20041;-76
2023/01/03 07:58:09;;;;;;;12.27;6.70;;;;;;;;;;5046565;28;20029;-75
2023/01/03 08:00:38;;;;;;;17.93;6.73;;;;;;;;;;5046562;28;20750;-76
2023/01/03 08:03:04;;;;;;;11.30;7.33;;;;;;;;;;5027487;28;20025;-75
2023/01/03 08:05:30;;;;;;;13.77;6.17;;;;;;;;;;5037897;28;20131;-77
2023/01/03 08:07:56;;;;;;;14.80;6.80;;;;;;;;;;5024667;28;20116;-77
2023/01/03 08:13:17;;;;;;;11.77;5.93;;;;;;;;;;5030465;28;20045;-76
2023/01/03 08:15:59;;;;;;;12.30;6.47;;;;;;;;;;5044329;28;20030;-76
2023/01/03 08:18:26;;;;;;;13.33;5.87;;;;;;;;;;5046237;28;20366;-76
2023/01/03 08:20:54;;;;;;;12.00;6.57;;;;;;;;;;5046215;28;20405;-76
2023/01/03 08:23:20;;;;;;;13.70;6.57;;;;;;;;;;5026654;28;20090;-76
2023/01/03 08:25:46;;;;;;;12.10;6.27;;;;;;;;;;5041245;28;20036;-76
2023/01/03 08:28:12;;;;;;;13.23;7.00;;;;;;;;;;5044698;28;20040;-76
2023/01/03 08:30:44;;;;;;;12.67;6.10;;;;;;;;;;5044372;28;20068;-75
2023/01/03 08:33:13;;;;;;;14.97;7.13;;;;;;;;;;5039731;28;20041;-76
2023/01/03 08:35:40;;;;;;;10.87;6.63;;;;;;;;;;5029136;28;20029;-76
2023/01/03 08:38:10;;;;;;;8.73;6.07;;;;;;;;;;5023206;28;20033;-76
2023/01/03 08:40:40;;;;;;;11.13;6.43;;;;;;;;;;5029721;28;20017;-76
2023/01/03 08:43:06;;;;;;;12.10;6.30;;;;;;;;;;5028291;28;20032;-75
2023/01/03 08:45:32;;;;;;;17.57;7.10;;;;;;;;;;5024871;28;20457;-76
2023/01/03 08:48:00;;;;;;;11.87;6.07;;;;;;;;;;5041481;28;20491;-76
2023/01/03 08:50:26;;;;;;;11.53;6.20;;;;;;;;;;5029553;28;20065;-75
2023/01/03 08:52:53;;;;;;;13.73;5.47;;;;;;;;;;5040854;28;20156;-75
2023/01/03 08:55:21;;;;;;;13.13;5.83;;;;;;;;;;5029723;28;20044;-76
2023/01/03 08:57:47;;;;;;;10.87;5.50;;;;;;;;;;5037742;28;21666;-75
2023/01/03 09:00:15;;;;;;;13.00;5.47;;;;;;;;;;5045192;28;20018;-76
2023/01/03 09:02:42;;;;;;;8.73;5.30;;;;;;;;;;5039599;28;20175;-75
2023/01/03 09:05:08;;;;;;;7.50;4.93;;;;;;;;;;5023782;28;20060;-75
2023/01/03 09:07:34;;;;;;;7.60;4.30;;;;;;;;;;5023526;28;20037;-75
2023/01/03 09:10:00;;;;;;;8.50;4.73;;;;;;;;;;5032049;28;20112;-75
2023/01/03 09:12:26;;;;;;;21.57;5.73;;;;;;;;;;5045219;28;20170;-75
2023/01/03 09:14:53;;;;;;;10.90;4.27;;;;;;;;;;5042146;28;20034;-76
2023/01/03 09:17:19;;;;;;;7.77;4.20;;;;;;;;;;5042608;28;20025;-75
2023/01/03 09:19:45;;;;;;;7.83;4.17;;;;;;;;;;5045640;28;20121;-75
2023/01/03 09:22:11;;;;;;;9.97;4.70;;;;;;;;;;5025149;28;20108;-75
2023/01/03 09:24:37;;;;;;;9.27;4.10;;;;;;;;;;5043443;28;20445;-75
2023/01/03 09:27:03;;;;;;;6.23;3.63;;;;;;;;;;5042358;28;20026;-75
2023/01/03 09:29:29;;;;;;;9.53;4.27;;;;;;;;;;5044876;28;20044;-75
2023/01/03 09:31:55;;;;;;;5.67;3.53;;;;;;;;;;5048698;28;20523;-75
2023/01/03 09:34:21;;;;;;;8.00;3.73;;;;;;;;;;5027804;28;20117;-75
2023/01/03 09:36:47;;;;;;;10.87;4.57;;;;;;;;;;5029381;28;20037;-76
2023/01/03 09:39:13;;;;;;;7.70;3.20;;;;;;;;;;5029228;28;20511;-75
2023/01/03 09:41:39;;;;;;;13.27;3.63;;;;;;;;;;5025174;28;20057;-75
2023/01/03 09:44:07;;;;;;;8.57;3.40;;;;;;;;;;5040362;28;20053;-75
2023/01/03 09:46:37;;;;;;;5.53;3.20;;;;;;;;;;5038618;28;20511;-76
2023/01/03 09:49:09;;;;;;;6.90;3.27;;;;;;;;;;5022721;28;20038;-76
2023/01/03 10:05:47;;;;;;;10.37;2.20;;;;;;;;;;5028082;28;20785;-75
2023/01/03 10:08:31;;;;;;;7.37;2.27;;;;;;;;;;5040137;28;20029;-76
2023/01/03 10:11:21;;;;;;;6.00;1.63;;;;;;;;;;5047005;28;20044;-75
2023/01/03 10:14:07;;;;;;;7.53;2.10;;;;;;;;;;5025383;28;20044;-74
2023/01/03 10:16:55;;;;;;;7.00;2.00;;;;;;;;;;5031538;28;20041;-74
2023/01/03 10:19:27;;;;;;;6.40;2.90;;;;;;;;;;5027733;28;20021;-75
2023/01/03 10:22:05;;;;;;;7.00;2.15;;;;;;;;;;5041374;28;20446;-76
2023/01/03 10:24:32;;;;;;;6.10;1.77;;;;;;;;;;5043461;28;20033;-75
2023/01/03 10:27:13;;;;;;;6.07;1.70;;;;;;;;;;5027254;28;20461;-75
2023/01/03 10:29:39;;;;;;;6.57;1.63;;;;;;;;;;5042726;28;20033;-75
2023/01/03 10:32:14;;;;;;;3.33;1.97;;;;;;;;;;5026380;28;20041;-74
2023/01/03 10:34:40;;;;;;;4.33;1.60;;;;;;;;;;5031833;28;20056;-76
2023/01/03 10:37:16;;;;;;;7.07;1.73;;;;;;;;;;5030542;28;20025;-75
2023/01/03 10:39:42;;;;;;;6.37;1.20;;;;;;;;;;5048156;28;20029;-76
2023/01/03 10:42:15;;;;;;;4.93;1.33;;;;;;;;;;5048417;28;20028;-74
2023/01/03 10:44:55;;;;;;;3.28;1.00;;;;;;;;;;5028950;28;20021;-76
2023/01/03 10:47:21;;;;;;;4.03;1.63;;;;;;;;;;5025727;28;20048;-75
2023/01/03 10:49:47;;;;;;;4.57;1.00;;;;;;;;;;5048128;28;20033;-75
2023/01/03 10:52:17;;;;;;;1.80;0.90;;;;;;;;;;5026042;28;20041;-74
2023/01/03 10:54:44;;;;;;;5.27;0.93;;;;;;;;;;5046847;28;20067;-76
2023/01/03 10:57:29;;;;;;;9.20;1.70;;;;;;;;;;5046956;28;20030;-76
2023/01/03 10:59:57;;;;;;;5.67;0.80;;;;;;;;;;5026830;28;20486;-75
2023/01/03 11:02:23;;;;;;;5.43;1.27;;;;;;;;;;5030917;28;20477;-76
2023/01/03 11:05:04;;;;;;;4.60;1.10;;;;;;;;;;5039289;28;20772;-75
2023/01/03 11:07:30;;;;;;;3.87;1.03;;;;;;;;;;5026302;28;20041;-75
2023/01/03 11:09:58;;;;;;;4.40;0.90;;;;;;;;;;5031997;28;20168;-76
2023/01/03 11:12:28;;;;;;;6.40;1.20;;;;;;;;;;5031324;28;20086;-75
2023/01/03 11:14:55;;;;;;;5.27;1.10;;;;;;;;;;5025992;28;20033;-76
2023/01/03 11:17:21;;;;;;;4.80;0.97;;;;;;;;;;5046545;28;20025;-76
2023/01/03 11:19:48;;;;;;;3.77;0.90;;;;;;;;;;5041551;28;20056;-75
2023/01/03 11:22:27;;;;;;;3.07;1.23;;;;;;;;;;5040731;28;20041;-76
2023/01/03 11:25:06;;;;;;;3.80;1.00;;;;;;;;;;5043218;28;21701;-76
2023/01/03 11:27:51;;;;;;;7.20;1.30;;;;;;;;;;5030957;28;20029;-75
2023/01/03 11:30:56;;;;;;;6.50;1.00;;;;;;;;;;5033520;28;20026;-76
2023/01/03 11:33:27;;;;;;;5.57;0.80;;;;;;;;;;4990739;28;20048;-75
2023/01/03 11:35:59;;;;;;;6.93;0.80;;;;;;;;;;5008723;28;20442;-75
2023/01/03 11:38:37;;;;;;;2.72;0.80;;;;;;;;;;4993997;28;20060;-74
2023/01/03 11:41:19;;;;;;;4.87;1.03;;;;;;;;;;4993719;28;20121;-76
2023/01/03 11:43:45;;;;;;;3.88;0.80;;;;;;;;;;4991567;28;20033;-75
2023/01/03 11:46:11;;;;;;;4.67;1.10;;;;;;;;;;4995567;28;20026;-75
2023/01/03 11:48:47;;;;;;;5.80;0.97;;;;;;;;;;4990403;28;20458;-74
2023/01/03 11:51:19;;;;;;;4.57;0.97;;;;;;;;;;4989709;28;20045;-75
2023/01/03 11:53:48;;;;;;;1.88;0.70;;;;;;;;;;4989641;28;20132;-75
2023/01/03 11:56:24;;;;;;;5.03;0.90;;;;;;;;;;5006905;28;20044;-75
2023/01/03 11:58:50;;;;;;;3.93;0.80;;;;;;;;;;5006874;28;20418;-75
2023/01/03 12:01:35;;;;;;;3.07;0.73;;;;;;;;;;4991423;28;20034;-76
2023/01/03 12:04:20;;;;;;;9.27;1.20;;;;;;;;;;5018260;28;20466;-74
2023/01/03 12:06:47;;;;;;;4.63;1.20;;;;;;;;;;5026452;28;20048;-76
2023/01/03 12:09:20;;;;;;;4.37;1.00;;;;;;;;;;5039771;28;20037;-75
2023/01/03 12:11:46;;;;;;;;;;;;;;;;;;5039071;28;20037;-76
2023/01/03 12:14:16;;;;;;;4.83;0.73;;;;;;;;;;5029497;28;19920;-75
2023/01/03 12:16:54;;;;;;;9.87;2.60;;;;;;;;;;5027149;28;20033;-75
2023/01/03 12:19:33;;;;;;;2.53;0.70;;;;;;;;;;5029663;28;20122;-75
2023/01/03 12:22:19;;;;;;;6.37;1.10;;;;;;;;;;5039416;28;20040;-75
2023/01/03 12:24:54;;;;;;;3.10;1.30;;;;;;;;;;5028279;28;20056;-75
2023/01/03 12:27:30;;;;;;;6.00;1.77;;;;;;;;;;5022343;28;20037;-74
2023/01/03 12:29:56;;;;;;;4.27;0.57;;;;;;;;;;5029162;28;20049;-75
2023/01/03 12:32:27;;;;;;;5.57;0.80;;;;;;;;;;5044444;28;20048;-76
2023/01/03 12:35:06;;;;;;;7.33;1.33;;;;;;;;;;5023286;28;20033;-75
2023/01/03 12:37:37;;;;;;;6.40;1.00;;;;;;;;;;5045201;28;20037;-76
2023/01/03 12:40:08;;;;;;;5.77;0.80;;;;;;;;;;5029265;28;20029;-75
2023/01/03 12:42:40;;;;;;;2.03;0.80;;;;;;;;;;5021668;28;20029;-74
2023/01/03 12:45:24;;;;;;;6.60;1.45;;;;;;;;;;5044819;28;20094;-76
2023/01/03 12:47:58;;;;;;;5.23;1.00;;;;;;;;;;5039086;28;20048;-75
2023/01/03 12:50:30;;;;;;;5.00;0.93;;;;;;;;;;5044745;28;20025;-75
2023/01/03 12:52:59;;;;;;;5.07;1.38;;;;;;;;;;5041841;28;20094;-75
2023/01/03 12:55:43;;;;;;;3.80;0.80;;;;;;;;;;5044630;28;20045;-75
2023/01/03 12:58:27;;;;;;;4.00;0.80;;;;;;;;;;5027852;28;20038;-76
2023/01/03 13:01:04;;;;;;;2.57;0.93;;;;;;;;;;5029076;28;20033;-75
2023/01/03 13:03:39;;;;;;;2.93;0.67;;;;;;;;;;5028134;28;20037;-75
2023/01/03 13:06:25;;;;;;;3.13;1.10;;;;;;;;;;5037974;28;20036;-75
2023/01/03 13:09:12;;;;;;;3.07;0.90;;;;;;;;;;5028079;28;20045;-75
2023/01/03 13:11:42;;;;;;;4.83;0.73;;;;;;;;;;5022962;28;20037;-75
2023/01/03 13:14:18;;;;;;;2.20;0.70;;;;;;;;;;5028700;28;20033;-76
2023/01/03 13:16:47;;;;;;;3.07;0.70;;;;;;;;;;5025005;28;20029;-74
2023/01/03 13:19:20;;;;;;;2.43;0.70;;;;;;;;;;5039597;28;20033;-75
2023/01/03 13:21:52;;;;;;;2.53;0.77;;;;;;;;;;5043534;28;20124;-75
2023/01/03 13:24:37;;;;;;;5.93;0.40;;;;;;;;;;5028548;28;20541;-74
2023/01/03 13:29:56;;;;;;;2.17;0.80;;;;;;;;;;5027602;28;20048;-75
2023/01/03 13:32:24;;;;;;;2.27;0.60;;;;;;;;;;5037328;28;20029;-76
2023/01/03 13:34:55;;;;;;;3.03;0.87;;;;;;;;;;5038006;28;20109;-75
2023/01/03 13:37:21;;;;;;;3.47;0.80;;;;;;;;;;5029442;28;20359;-76
2023/01/03 13:39:57;;;;;;;2.33;0.70;;;;;;;;;;5023280;28;20013;-75
2023/01/03 13:42:23;;;;;;;4.43;0.90;;;;;;;;;;5039756;28;20022;-75
2023/01/03 13:44:50;;;;;;;5.67;1.50;;;;;;;;;;5031895;28;20040;-75
2023/01/03 13:47:30;;;;;;;4.27;0.67;;;;;;;;;;5046966;28;20101;-76
2023/01/03 13:49:56;;;;;;;2.27;0.50;;;;;;;;;;5048911;28;20037;-74
2023/01/03 13:52:36;;;;;;;3.27;0.60;;;;;;;;;;5041636;28;20030;-75
2023/01/03 13:55:04;;;;;;;1.93;0.63;;;;;;;;;;5030981;28;20397;-75
2023/01/03 13:57:35;;;;;;;3.23;0.60;;;;;;;;;;5029294;28;20033;-75
2023/01/03 14:00:09;;;;;;;5.20;0.67;;;;;;;;;;5033262;28;20116;-74
2023/01/03 14:02:35;;;;;;;6.20;0.80;;;;;;;;;;5031306;28;20060;-76
2023/01/03 14:05:13;;;;;;;3.97;0.70;;;;;;;;;;5028335;28;20465;-75
2023/01/03 14:07:39;;;;;;;2.47;0.70;;;;;;;;;;5046980;28;20041;-75
2023/01/03 14:10:13;;;;;;;4.27;0.70;;;;;;;;;;5030925;28;20033;-76
2023/01/03 14:12:54;;;;;;;2.53;0.70;;;;;;;;;;5024204;28;20056;-73
2023/01/03 14:15:24;;;;;;;8.73;1.20;;;;;;;;;;5039422;28;20049;-75
2023/01/03 14:17:56;;;;;;;1.90;0.83;;;;;;;;;;5046476;28;20029;-75
2023/01/03 14:20:24;;;;;;;4.80;0.60;;;;;;;;;;5025538;28;20449;-75
2023/01/03 14:22:50;;;;;;;1.97;0.53;;;;;;;;;;5031345;28;20434;-75
2023/01/03 14:25:35;;;;;;;4.57;1.10;;;;;;;;;;5023577;28;20033;-75
2023/01/03 14:28:18;;;;;;;7.23;0.70;;;;;;;;;;5042620;28;20038;-76
2023/01/03 14:30:44;;;;;;;9.13;1.30;;;;;;;;;;5023028;28;20033;-75
2023/01/03 14:33:34;;;;;;;2.93;0.90;;;;;;;;;;5026676;28;20053;-74
2023/01/03 14:36:02;;;;;;;2.20;0.60;;;;;;;;;;5028863;28;20049;-75
2023/01/03 14:38:30;;;;;;;8.60;1.20;;;;;;;;;;5045449;28;20034;-76
2023/01/03 14:40:56;;;;;;;2.40;0.83;;;;;;;;;;5039234;28;20033;-75
2023/01/03 14:43:24;;;;;;;6.60;2.60;;;;;;;;;;5025172;28;20075;-76
2023/01/03 14:45:54;;;;;;;4.77;1.90;;;;;;;;;;5023877;28;20033;-75
2023/01/03 14:48:21;;;;;;;4.43;1.07;;;;;;;;;;5027377;28;20038;-76
2023/01/03 14:50:47;;;;;;;3.03;0.50;;;;;;;;;;5045712;28;20041;-75
2023/01/03 14:53:13;;;;;;;3.37;0.90;;;;;;;;;;5038812;28;20029;-76
2023/01/03 14:55:39;;;;;;;2.37;0.57;;;;;;;;;;5038765;28;20089;-76
2023/01/03 14:58:38;;;;;;;2.40;0.70;;;;;;;;;;5045525;28;20033;-73
2023/01/03 15:01:05;;;;;;;3.27;0.50;;;;;;;;;;5010166;28;20040;-75
2023/01/03 15:03:35;;;;;;;4.47;0.50;;;;;;;;;;5039303;28;20080;-74
2023/01/03 15:06:14;;;;;;;2.53;0.70;;;;;;;;;;5043044;28;20087;-75
2023/01/03 15:08:42;;;;;;;3.10;0.73;;;;;;;;;;5046895;28;21581;-75
2023/01/03 15:11:09;;;;;;;0.97;0.40;;;;;;;;;;5044166;28;20037;-75
2023/01/03 15:13:35;;;;;;;2.40;0.80;;;;;;;;;;5029666;28;20037;-75
2023/01/03 15:16:03;;;;;;;2.73;0.83;;;;;;;;;;5029812;28;20047;-75
2023/01/03 15:18:31;;;;;;;3.30;0.63;;;;;;;;;;5024009;28;20087;-76
2023/01/03 15:20:58;;;;;;;3.53;0.60;;;;;;;;;;5038984;28;20470;-75
2023/01/03 15:23:27;;;;;;;4.80;1.03;;;;;;;;;;5027341;28;20453;-74
2023/01/03 15:25:53;;;;;;;3.77;1.27;;;;;;;;;;5029581;28;20036;-75
2023/01/03 15:28:24;;;;;;;1.90;0.73;;;;;;;;;;5028896;28;20537;-75
2023/01/03 15:30:50;;;;;;;4.40;0.90;;;;;;;;;;5044801;28;20347;-75
2023/01/03 15:33:31;;;;;;;3.17;0.80;;;;;;;;;;5029000;28;20061;-74
2023/01/03 15:36:00;;;;;;;3.70;0.90;;;;;;;;;;5025648;28;20065;-75
2023/01/03 15:38:29;;;;;;;2.00;0.60;;;;;;;;;;5028801;28;20033;-74
2023/01/03 15:40:55;;;;;;;2.73;1.00;;;;;;;;;;5044429;28;20044;-76
2023/01/03 15:43:22;;;;;;;3.90;1.00;;;;;;;;;;5028812;28;20624;-76
2023/01/03 15:45:53;;;;;;;3.30;1.23;;;;;;;;;;5028436;28;20029;-75
2023/01/03 15:48:21;;;;;;;9.10;1.43;;;;;;;;;;5025736;28;20094;-74
2023/01/03 15:50:51;;;;;;;6.63;2.20;;;;;;;;;;5037637;28;20527;-74
2023/01/03 15:53:28;;;;;;;2.80;1.30;;;;;;;;;;5037654;28;20099;-76
2023/01/03 15:56:02;;;;;;;6.37;2.03;;;;;;;;;;5040541;28;20037;-75
2023/01/03 15:58:29;;;;;;;5.73;1.30;;;;;;;;;;5029292;28;20430;-75
2023/01/03 16:00:58;;;;;;;4.50;1.20;;;;;;;;;;5026381;28;20064;-76